sensor_id;sensor_type;location;lat;lon;timestamp;temperature;humidity
68922;DHT22;55959;51.244;5.724;2022-09-09T00:04:32;19.40;69.30
68922;DHT22;55959;51.244;5.724;2022-09-09T00:07:13;19.40;69.20
68922;DHT22;55959;51.244;5.724;2022-09-09T00:09:45;19.40;70.20
68922;DHT22;55959;51.244;5.724;2022-09-09T00:21:43;19.30;69.00
68922;DHT22;55959;51.244;5.724;2022-09-09T00:24:37;19.30;69.00
68922;DHT22;55959;51.244;5.724;2022-09-09T00:27:37;19.30;69.00
68922;DHT22;55959;51.244;5.724;2022-09-09T00:33:08;19.20;68.80
68922;DHT22;55959;51.244;5.724;2022-09-09T00:35:40;19.20;69.00
68922;DHT22;55959;51.244;5.724;2022-09-09T00:38:24;19.20;69.00
68922;DHT22;55959;51.244;5.724;2022-09-09T00:40:53;19.20;69.20
68922;DHT22;55959;51.244;5.724;2022-09-09T00:43:30;19.20;69.20
68922;DHT22;55959;51.244;5.724;2022-09-09T00:46:16;19.20;69.10
68922;DHT22;55959;51.244;5.724;2022-09-09T00:49:26;19.10;69.00
68922;DHT22;55959;51.244;5.724;2022-09-09T00:52:29;19.10;68.90
68922;DHT22;55959;51.244;5.724;2022-09-09T00:58:13;19.10;69.00
68922;DHT22;55959;51.244;5.724;2022-09-09T01:00:45;19.00;69.00
68922;DHT22;55959;51.244;5.724;2022-09-09T01:03:32;19.00;69.00
68922;DHT22;55959;51.244;5.724;2022-09-09T01:06:34;19.00;69.00
68922;DHT22;55959;51.244;5.724;2022-09-09T01:12:14;19.00;69.10
68922;DHT22;55959;51.244;5.724;2022-09-09T01:14:56;19.00;69.10
68922;DHT22;55959;51.244;5.724;2022-09-09T01:17:32;18.90;69.10
68922;DHT22;55959;51.244;5.724;2022-09-09T01:20:15;18.90;69.10
68922;DHT22;55959;51.244;5.724;2022-09-09T01:26:38;18.90;69.20
68922;DHT22;55959;51.244;5.724;2022-09-09T01:29:11;18.90;69.30
68922;DHT22;55959;51.244;5.724;2022-09-09T01:34:11;18.80;69.50
68922;DHT22;55959;51.244;5.724;2022-09-09T01:39:26;18.80;69.70
68922;DHT22;55959;51.244;5.724;2022-09-09T01:41:53;18.80;69.70
68922;DHT22;55959;51.244;5.724;2022-09-09T01:44:20;18.80;69.70
68922;DHT22;55959;51.244;5.724;2022-09-09T01:46:47;18.80;69.80
68922;DHT22;55959;51.244;5.724;2022-09-09T01:49:13;18.80;69.80
68922;DHT22;55959;51.244;5.724;2022-09-09T01:51:39;18.80;69.90
68922;DHT22;55959;51.244;5.724;2022-09-09T01:54:07;18.80;69.90
68922;DHT22;55959;51.244;5.724;2022-09-09T01:59:45;18.70;70.10
68922;DHT22;55959;51.244;5.724;2022-09-09T02:02:34;18.70;70.10
68922;DHT22;55959;51.244;5.724;2022-09-09T02:07:57;18.70;70.30
68922;DHT22;55959;51.244;5.724;2022-09-09T02:10:35;18.70;70.40
68922;DHT22;55959;51.244;5.724;2022-09-09T02:13:22;18.70;70.50
68922;DHT22;55959;51.244;5.724;2022-09-09T02:16:07;18.70;70.70
68922;DHT22;55959;51.244;5.724;2022-09-09T02:18:38;18.70;70.70
68922;DHT22;55959;51.244;5.724;2022-09-09T02:21:08;18.60;70.70
68922;DHT22;55959;51.244;5.724;2022-09-09T02:23:36;18.60;70.70
68922;DHT22;55959;51.244;5.724;2022-09-09T02:26:05;18.60;70.80
68922;DHT22;55959;51.244;5.724;2022-09-09T02:28:34;18.60;70.90
68922;DHT22;55959;51.244;5.724;2022-09-09T02:31:02;18.60;71.00
68922;DHT22;55959;51.244;5.724;2022-09-09T02:33:33;18.60;71.00
68922;DHT22;55959;51.244;5.724;2022-09-09T02:36:03;18.60;71.10
68922;DHT22;55959;51.244;5.724;2022-09-09T02:38:34;18.60;71.00
68922;DHT22;55959;51.244;5.724;2022-09-09T02:41:05;18.60;71.10
68922;DHT22;55959;51.244;5.724;2022-09-09T02:43:34;18.60;71.10
68922;DHT22;55959;51.244;5.724;2022-09-09T02:49:09;18.60;71.20
68922;DHT22;55959;51.244;5.724;2022-09-09T02:57:13;18.50;71.30
68922;DHT22;55959;51.244;5.724;2022-09-09T02:59:44;18.60;71.50
68922;DHT22;55959;51.244;5.724;2022-09-09T03:02:11;18.50;71.50
68922;DHT22;55959;51.244;5.724;2022-09-09T03:04:38;18.60;71.50
68922;DHT22;55959;51.244;5.724;2022-09-09T03:07:04;18.50;71.50
68922;DHT22;55959;51.244;5.724;2022-09-09T03:09:31;18.50;71.40
68922;DHT22;55959;51.244;5.724;2022-09-09T03:11:59;18.50;71.40
68922;DHT22;55959;51.244;5.724;2022-09-09T03:14:25;18.50;71.50
68922;DHT22;55959;51.244;5.724;2022-09-09T03:16:51;18.50;71.50
68922;DHT22;55959;51.244;5.724;2022-09-09T03:19:18;18.50;71.50
68922;DHT22;55959;51.244;5.724;2022-09-09T03:21:45;18.50;71.30
68922;DHT22;55959;51.244;5.724;2022-09-09T03:24:11;18.60;71.40
68922;DHT22;55959;51.244;5.724;2022-09-09T03:26:38;18.50;71.30
68922;DHT22;55959;51.244;5.724;2022-09-09T03:29:04;18.60;71.30
68922;DHT22;55959;51.244;5.724;2022-09-09T03:31:33;18.60;71.30
68922;DHT22;55959;51.244;5.724;2022-09-09T03:34:01;18.50;71.10
68922;DHT22;55959;51.244;5.724;2022-09-09T03:36:27;18.50;71.00
68922;DHT22;55959;51.244;5.724;2022-09-09T03:38:54;18.50;71.10
68922;DHT22;55959;51.244;5.724;2022-09-09T03:41:23;18.50;71.10
68922;DHT22;55959;51.244;5.724;2022-09-09T03:43:53;18.50;71.30
68922;DHT22;55959;51.244;5.724;2022-09-09T03:46:23;18.50;71.50
68922;DHT22;55959;51.244;5.724;2022-09-09T03:48:50;18.50;71.60
68922;DHT22;55959;51.244;5.724;2022-09-09T03:51:18;18.50;71.60
68922;DHT22;55959;51.244;5.724;2022-09-09T03:53:44;18.50;71.70
68922;DHT22;55959;51.244;5.724;2022-09-09T03:56:10;18.50;71.80
68922;DHT22;55959;51.244;5.724;2022-09-09T03:58:39;18.50;71.80
68922;DHT22;55959;51.244;5.724;2022-09-09T04:01:10;18.50;71.90
68922;DHT22;55959;51.244;5.724;2022-09-09T04:03:39;18.50;72.00
68922;DHT22;55959;51.244;5.724;2022-09-09T04:06:06;18.50;72.20
68922;DHT22;55959;51.244;5.724;2022-09-09T04:08:34;18.50;72.30
68922;DHT22;55959;51.244;5.724;2022-09-09T04:11:02;18.50;72.50
68922;DHT22;55959;51.244;5.724;2022-09-09T04:13:30;18.50;72.50
68922;DHT22;55959;51.244;5.724;2022-09-09T04:15:57;18.50;72.70
68922;DHT22;55959;51.244;5.724;2022-09-09T04:18:25;18.50;72.70
68922;DHT22;55959;51.244;5.724;2022-09-09T04:20:52;18.50;72.90
68922;DHT22;55959;51.244;5.724;2022-09-09T04:23:20;18.50;72.90
68922;DHT22;55959;51.244;5.724;2022-09-09T04:25:47;18.60;72.90
68922;DHT22;55959;51.244;5.724;2022-09-09T04:28:15;18.60;73.00
68922;DHT22;55959;51.244;5.724;2022-09-09T04:30:43;18.60;73.10
68922;DHT22;55959;51.244;5.724;2022-09-09T04:33:10;18.60;73.10
68922;DHT22;55959;51.244;5.724;2022-09-09T04:35:36;18.60;73.10
68922;DHT22;55959;51.244;5.724;2022-09-09T04:38:05;18.60;73.20
68922;DHT22;55959;51.244;5.724;2022-09-09T04:40:33;18.60;73.10
68922;DHT22;55959;51.244;5.724;2022-09-09T04:43:00;18.60;73.10
68922;DHT22;55959;51.244;5.724;2022-09-09T04:45:27;18.60;73.10
68922;DHT22;55959;51.244;5.724;2022-09-09T04:47:53;18.70;73.10
68922;DHT22;55959;51.244;5.724;2022-09-09T04:50:19;18.70;73.10
68922;DHT22;55959;51.244;5.724;2022-09-09T04:52:45;18.70;73.10
68922;DHT22;55959;51.244;5.724;2022-09-09T04:55:11;18.70;72.90
68922;DHT22;55959;51.244;5.724;2022-09-09T04:57:38;18.70;72.90
68922;DHT22;55959;51.244;5.724;2022-09-09T05:00:04;18.70;72.80
68922;DHT22;55959;51.244;5.724;2022-09-09T05:02:31;18.70;72.90
68922;DHT22;55959;51.244;5.724;2022-09-09T05:04:57;18.70;72.80
68922;DHT22;55959;51.244;5.724;2022-09-09T05:07:23;18.70;72.70
68922;DHT22;55959;51.244;5.724;2022-09-09T05:09:51;18.70;72.70
68922;DHT22;55959;51.244;5.724;2022-09-09T05:12:17;18.70;72.70
68922;DHT22;55959;51.244;5.724;2022-09-09T05:14:43;18.70;72.60
68922;DHT22;55959;51.244;5.724;2022-09-09T05:17:09;18.70;72.70
68922;DHT22;55959;51.244;5.724;2022-09-09T05:19:36;18.70;72.70
68922;DHT22;55959;51.244;5.724;2022-09-09T05:22:02;18.70;72.70
68922;DHT22;55959;51.244;5.724;2022-09-09T05:24:28;18.70;72.70
68922;DHT22;55959;51.244;5.724;2022-09-09T05:26:54;18.70;72.70
68922;DHT22;55959;51.244;5.724;2022-09-09T05:29:23;18.70;72.70
68922;DHT22;55959;51.244;5.724;2022-09-09T05:31:49;18.70;72.70
68922;DHT22;55959;51.244;5.724;2022-09-09T05:34:14;18.70;72.70
68922;DHT22;55959;51.244;5.724;2022-09-09T05:36:40;18.70;72.70
68922;DHT22;55959;51.244;5.724;2022-09-09T05:39:06;18.60;72.70
68922;DHT22;55959;51.244;5.724;2022-09-09T05:41:32;18.70;72.90
68922;DHT22;55959;51.244;5.724;2022-09-09T05:43:58;18.70;72.90
68922;DHT22;55959;51.244;5.724;2022-09-09T05:46:26;18.70;72.90
68922;DHT22;55959;51.244;5.724;2022-09-09T05:48:53;18.70;72.90
68922;DHT22;55959;51.244;5.724;2022-09-09T05:51:22;18.70;73.00
68922;DHT22;55959;51.244;5.724;2022-09-09T05:53:49;18.70;73.10
68922;DHT22;55959;51.244;5.724;2022-09-09T05:56:25;18.70;73.00
68922;DHT22;55959;51.244;5.724;2022-09-09T05:58:52;18.70;73.10
68922;DHT22;55959;51.244;5.724;2022-09-09T06:01:27;18.70;73.00
68922;DHT22;55959;51.244;5.724;2022-09-09T06:03:54;18.70;73.10
68922;DHT22;55959;51.244;5.724;2022-09-09T06:06:23;18.70;73.10
68922;DHT22;55959;51.244;5.724;2022-09-09T06:08:52;18.70;73.20
68922;DHT22;55959;51.244;5.724;2022-09-09T06:11:22;18.80;73.30
68922;DHT22;55959;51.244;5.724;2022-09-09T06:13:50;18.80;73.30
68922;DHT22;55959;51.244;5.724;2022-09-09T06:16:21;18.80;73.40
68922;DHT22;55959;51.244;5.724;2022-09-09T06:18:53;18.80;73.40
68922;DHT22;55959;51.244;5.724;2022-09-09T06:21:24;18.80;73.40
68922;DHT22;55959;51.244;5.724;2022-09-09T06:23:56;18.80;73.50
68922;DHT22;55959;51.244;5.724;2022-09-09T06:26:24;18.90;73.40
68922;DHT22;55959;51.244;5.724;2022-09-09T06:28:56;18.90;73.40
68922;DHT22;55959;51.244;5.724;2022-09-09T06:31:25;18.90;73.40
68922;DHT22;55959;51.244;5.724;2022-09-09T06:33:56;18.90;73.40
68922;DHT22;55959;51.244;5.724;2022-09-09T06:36:26;19.00;73.40
68922;DHT22;55959;51.244;5.724;2022-09-09T06:38:53;18.90;73.40
68922;DHT22;55959;51.244;5.724;2022-09-09T06:41:22;19.00;73.40
68922;DHT22;55959;51.244;5.724;2022-09-09T06:43:50;19.00;73.40
68922;DHT22;55959;51.244;5.724;2022-09-09T06:46:24;19.00;73.20
68922;DHT22;55959;51.244;5.724;2022-09-09T06:48:54;19.00;73.10
68922;DHT22;55959;51.244;5.724;2022-09-09T06:51:22;19.10;73.00
68922;DHT22;55959;51.244;5.724;2022-09-09T06:53:53;19.10;72.90
68922;DHT22;55959;51.244;5.724;2022-09-09T06:56:26;19.00;72.80
68922;DHT22;55959;51.244;5.724;2022-09-09T06:59:01;19.10;72.80
68922;DHT22;55959;51.244;5.724;2022-09-09T07:01:31;19.10;72.80
68922;DHT22;55959;51.244;5.724;2022-09-09T07:03:58;19.10;72.80
68922;DHT22;55959;51.244;5.724;2022-09-09T07:06:30;19.10;72.80
68922;DHT22;55959;51.244;5.724;2022-09-09T07:09:20;19.10;72.90
68922;DHT22;55959;51.244;5.724;2022-09-09T07:11:47;19.10;72.90
68922;DHT22;55959;51.244;5.724;2022-09-09T07:14:16;19.10;72.80
68922;DHT22;55959;51.244;5.724;2022-09-09T07:16:43;19.20;72.90
68922;DHT22;55959;51.244;5.724;2022-09-09T07:19:10;19.20;72.80
68922;DHT22;55959;51.244;5.724;2022-09-09T07:21:36;19.20;72.80
68922;DHT22;55959;51.244;5.724;2022-09-09T07:24:02;19.30;72.80
68922;DHT22;55959;51.244;5.724;2022-09-09T07:26:32;19.30;72.80
68922;DHT22;55959;51.244;5.724;2022-09-09T07:28:59;19.30;72.80
68922;DHT22;55959;51.244;5.724;2022-09-09T07:31:27;19.40;72.90
68922;DHT22;55959;51.244;5.724;2022-09-09T07:33:55;19.40;72.80
68922;DHT22;55959;51.244;5.724;2022-09-09T07:36:23;19.40;72.80
68922;DHT22;55959;51.244;5.724;2022-09-09T07:39:03;19.40;72.70
68922;DHT22;55959;51.244;5.724;2022-09-09T07:41:37;19.40;72.60
68922;DHT22;55959;51.244;5.724;2022-09-09T07:44:05;19.50;72.40
68922;DHT22;55959;51.244;5.724;2022-09-09T07:46:42;19.50;72.40
68922;DHT22;55959;51.244;5.724;2022-09-09T07:49:10;19.60;72.40
68922;DHT22;55959;51.244;5.724;2022-09-09T07:51:42;19.60;72.40
68922;DHT22;55959;51.244;5.724;2022-09-09T07:54:12;19.60;72.40
68922;DHT22;55959;51.244;5.724;2022-09-09T07:56:39;19.70;72.30
68922;DHT22;55959;51.244;5.724;2022-09-09T07:59:05;19.70;72.10
68922;DHT22;55959;51.244;5.724;2022-09-09T08:01:37;19.70;72.00
68922;DHT22;55959;51.244;5.724;2022-09-09T08:04:07;19.70;72.00
68922;DHT22;55959;51.244;5.724;2022-09-09T08:06:39;19.80;71.80
68922;DHT22;55959;51.244;5.724;2022-09-09T08:09:06;19.80;71.70
68922;DHT22;55959;51.244;5.724;2022-09-09T08:11:33;19.80;71.60
68922;DHT22;55959;51.244;5.724;2022-09-09T08:13:59;19.80;71.40
68922;DHT22;55959;51.244;5.724;2022-09-09T08:16:27;19.90;71.50
68922;DHT22;55959;51.244;5.724;2022-09-09T08:18:56;19.90;71.40
68922;DHT22;55959;51.244;5.724;2022-09-09T08:21:24;20.00;71.50
68922;DHT22;55959;51.244;5.724;2022-09-09T08:23:54;19.90;71.40
68922;DHT22;55959;51.244;5.724;2022-09-09T08:26:25;20.00;71.40
68922;DHT22;55959;51.244;5.724;2022-09-09T08:28:54;20.00;71.20
68922;DHT22;55959;51.244;5.724;2022-09-09T08:31:30;20.00;71.00
68922;DHT22;55959;51.244;5.724;2022-09-09T08:33:59;20.10;70.80
68922;DHT22;55959;51.244;5.724;2022-09-09T08:36:28;20.10;70.70
68922;DHT22;55959;51.244;5.724;2022-09-09T08:38:57;20.10;70.60
68922;DHT22;55959;51.244;5.724;2022-09-09T08:41:31;20.10;70.30
68922;DHT22;55959;51.244;5.724;2022-09-09T08:50:36;20.20;70.00
68922;DHT22;55959;51.244;5.724;2022-09-09T08:53:05;20.10;69.70
68922;DHT22;55959;51.244;5.724;2022-09-09T08:55:56;20.20;69.70
68922;DHT22;55959;51.244;5.724;2022-09-09T08:58:29;20.20;69.70
68922;DHT22;55959;51.244;5.724;2022-09-09T09:03:44;20.20;69.30
68922;DHT22;55959;51.244;5.724;2022-09-09T09:09:21;20.20;69.10
68922;DHT22;55959;51.244;5.724;2022-09-09T09:11:59;20.20;69.00
68922;DHT22;55959;51.244;5.724;2022-09-09T09:14:30;20.20;68.80
68922;DHT22;55959;51.244;5.724;2022-09-09T09:17:12;20.20;68.80
68922;DHT22;55959;51.244;5.724;2022-09-09T09:19:41;20.30;68.80
68922;DHT22;55959;51.244;5.724;2022-09-09T09:30:05;20.30;68.50
68922;DHT22;55959;51.244;5.724;2022-09-09T09:32:39;20.30;68.50
68922;DHT22;55959;51.244;5.724;2022-09-09T09:35:12;20.30;68.40
68922;DHT22;55959;51.244;5.724;2022-09-09T09:37:40;20.40;68.40
68922;DHT22;55959;51.244;5.724;2022-09-09T09:40:11;20.40;68.50
68922;DHT22;55959;51.244;5.724;2022-09-09T09:45:33;20.40;68.50
68922;DHT22;55959;51.244;5.724;2022-09-09T09:48:12;20.40;68.30
68922;DHT22;55959;51.244;5.724;2022-09-09T09:53:37;20.40;68.20
68922;DHT22;55959;51.244;5.724;2022-09-09T09:56:06;20.50;68.30
68922;DHT22;55959;51.244;5.724;2022-09-09T09:58:50;20.50;68.30
68922;DHT22;55959;51.244;5.724;2022-09-09T10:01:43;20.50;68.30
68922;DHT22;55959;51.244;5.724;2022-09-09T10:04:18;20.50;68.40
68922;DHT22;55959;51.244;5.724;2022-09-09T10:06:49;20.50;68.40
68922;DHT22;55959;51.244;5.724;2022-09-09T10:09:33;20.50;68.40
68922;DHT22;55959;51.244;5.724;2022-09-09T10:15:30;20.50;68.40
68922;DHT22;55959;51.244;5.724;2022-09-09T10:29:30;20.70;68.60
68922;DHT22;55959;51.244;5.724;2022-09-09T10:35:10;20.80;68.00
68922;DHT22;55959;51.244;5.724;2022-09-09T10:46:29;20.80;67.80
68922;DHT22;55959;51.244;5.724;2022-09-09T10:55:10;20.80;68.00
68922;DHT22;55959;51.244;5.724;2022-09-09T10:57:48;20.90;68.20
68922;DHT22;55959;51.244;5.724;2022-09-09T11:00:42;20.90;68.40
68922;DHT22;55959;51.244;5.724;2022-09-09T11:03:23;20.90;68.50
68922;DHT22;55959;51.244;5.724;2022-09-09T11:05:59;20.90;68.40
68922;DHT22;55959;51.244;5.724;2022-09-09T11:08:29;20.90;68.50
68922;DHT22;55959;51.244;5.724;2022-09-09T11:14:19;20.90;68.60
68922;DHT22;55959;51.244;5.724;2022-09-09T11:16:57;20.90;68.70
68922;DHT22;55959;51.244;5.724;2022-09-09T11:28:05;20.80;69.10
68922;DHT22;55959;51.244;5.724;2022-09-09T11:37:23;20.80;69.40
68922;DHT22;55959;51.244;5.724;2022-09-09T11:42:49;20.70;70.20
68922;DHT22;55959;51.244;5.724;2022-09-09T11:45:24;20.80;70.60
68922;DHT22;55959;51.244;5.724;2022-09-09T11:47:58;20.80;70.90
68922;DHT22;55959;51.244;5.724;2022-09-09T11:53:02;20.80;71.10
68922;DHT22;55959;51.244;5.724;2022-09-09T11:56:00;20.90;71.20
68922;DHT22;55959;51.244;5.724;2022-09-09T11:58:42;20.90;71.20
68922;DHT22;55959;51.244;5.724;2022-09-09T12:01:29;20.90;71.10
68922;DHT22;55959;51.244;5.724;2022-09-09T12:07:37;21.00;71.20
68922;DHT22;55959;51.244;5.724;2022-09-09T12:12:37;21.00;72.00
68922;DHT22;55959;51.244;5.724;2022-09-09T12:17:44;21.10;71.20
68922;DHT22;55959;51.244;5.724;2022-09-09T12:32:07;21.20;71.40
68922;DHT22;55959;51.244;5.724;2022-09-09T12:34:46;21.30;72.20
68922;DHT22;55959;51.244;5.724;2022-09-09T12:37:26;21.30;71.60
68922;DHT22;55959;51.244;5.724;2022-09-09T12:39:58;21.40;71.60
68922;DHT22;55959;51.244;5.724;2022-09-09T12:42:26;21.40;71.40
68922;DHT22;55959;51.244;5.724;2022-09-09T12:45:00;21.40;71.10
68922;DHT22;55959;51.244;5.724;2022-09-09T12:47:45;21.50;71.00
68922;DHT22;55959;51.244;5.724;2022-09-09T12:50:35;21.50;70.80
68922;DHT22;55959;51.244;5.724;2022-09-09T12:53:35;21.60;70.40
68922;DHT22;55959;51.244;5.724;2022-09-09T12:56:04;21.60;70.00
68922;DHT22;55959;51.244;5.724;2022-09-09T12:58:34;21.60;69.70
68922;DHT22;55959;51.244;5.724;2022-09-09T13:01:03;21.60;69.60
68922;DHT22;55959;51.244;5.724;2022-09-09T13:03:31;21.60;69.60
68922;DHT22;55959;51.244;5.724;2022-09-09T13:06:10;21.60;69.70
68922;DHT22;55959;51.244;5.724;2022-09-09T13:08:37;21.60;69.70
68922;DHT22;55959;51.244;5.724;2022-09-09T13:11:09;21.70;69.60
68922;DHT22;55959;51.244;5.724;2022-09-09T13:13:40;21.70;69.50
68922;DHT22;55959;51.244;5.724;2022-09-09T13:16:19;21.80;69.60
68922;DHT22;55959;51.244;5.724;2022-09-09T13:18:47;21.80;69.40
68922;DHT22;55959;51.244;5.724;2022-09-09T13:21:13;21.80;69.10
68922;DHT22;55959;51.244;5.724;2022-09-09T13:23:39;21.80;69.10
68922;DHT22;55959;51.244;5.724;2022-09-09T13:26:25;21.80;69.00
68922;DHT22;55959;51.244;5.724;2022-09-09T13:28:53;21.90;69.00
68922;DHT22;55959;51.244;5.724;2022-09-09T13:31:28;21.90;68.80
68922;DHT22;55959;51.244;5.724;2022-09-09T13:33:55;22.00;68.70
68922;DHT22;55959;51.244;5.724;2022-09-09T13:36:32;22.00;68.30
68922;DHT22;55959;51.244;5.724;2022-09-09T13:39:02;22.10;68.20
68922;DHT22;55959;51.244;5.724;2022-09-09T13:41:36;22.10;68.90
68922;DHT22;55959;51.244;5.724;2022-09-09T13:44:25;22.20;67.90
68922;DHT22;55959;51.244;5.724;2022-09-09T13:47:06;22.20;67.50
68922;DHT22;55959;51.244;5.724;2022-09-09T13:49:44;22.30;67.50
68922;DHT22;55959;51.244;5.724;2022-09-09T13:52:12;22.30;67.40
68922;DHT22;55959;51.244;5.724;2022-09-09T13:54:40;22.30;67.20
68922;DHT22;55959;51.244;5.724;2022-09-09T13:57:23;22.40;67.10
68922;DHT22;55959;51.244;5.724;2022-09-09T13:59:51;22.40;66.70
68922;DHT22;55959;51.244;5.724;2022-09-09T14:02:18;22.40;66.70
68922;DHT22;55959;51.244;5.724;2022-09-09T14:04:45;22.50;66.80
68922;DHT22;55959;51.244;5.724;2022-09-09T14:07:15;22.50;66.90
68922;DHT22;55959;51.244;5.724;2022-09-09T14:09:43;22.50;66.90
68922;DHT22;55959;51.244;5.724;2022-09-09T14:12:12;22.60;66.90
68922;DHT22;55959;51.244;5.724;2022-09-09T14:14:40;22.60;66.80
68922;DHT22;55959;51.244;5.724;2022-09-09T14:17:08;22.60;66.60
68922;DHT22;55959;51.244;5.724;2022-09-09T14:19:34;22.70;66.30
68922;DHT22;55959;51.244;5.724;2022-09-09T14:22:00;22.70;66.10
68922;DHT22;55959;51.244;5.724;2022-09-09T14:24:26;22.70;65.70
68922;DHT22;55959;51.244;5.724;2022-09-09T14:26:53;22.80;65.60
68922;DHT22;55959;51.244;5.724;2022-09-09T14:29:19;22.80;65.50
68922;DHT22;55959;51.244;5.724;2022-09-09T14:31:45;22.80;65.10
68922;DHT22;55959;51.244;5.724;2022-09-09T14:34:11;22.80;64.90
68922;DHT22;55959;51.244;5.724;2022-09-09T14:36:37;22.90;64.50
68922;DHT22;55959;51.244;5.724;2022-09-09T14:39:04;22.90;64.50
68922;DHT22;55959;51.244;5.724;2022-09-09T14:41:31;22.90;64.60
68922;DHT22;55959;51.244;5.724;2022-09-09T14:43:56;22.90;64.70
68922;DHT22;55959;51.244;5.724;2022-09-09T14:46:23;23.00;64.80
68922;DHT22;55959;51.244;5.724;2022-09-09T14:48:49;23.00;64.60
68922;DHT22;55959;51.244;5.724;2022-09-09T14:51:25;23.10;63.90
68922;DHT22;55959;51.244;5.724;2022-09-09T14:53:57;23.10;63.50
68922;DHT22;55959;51.244;5.724;2022-09-09T14:56:29;23.10;63.20
68922;DHT22;55959;51.244;5.724;2022-09-09T14:58:58;23.10;63.00
68922;DHT22;55959;51.244;5.724;2022-09-09T15:01:26;23.10;62.90
68922;DHT22;55959;51.244;5.724;2022-09-09T15:03:55;23.10;62.90
68922;DHT22;55959;51.244;5.724;2022-09-09T15:06:24;23.20;63.00
68922;DHT22;55959;51.244;5.724;2022-09-09T15:08:53;23.20;62.70
68922;DHT22;55959;51.244;5.724;2022-09-09T15:11:20;23.20;62.40
68922;DHT22;55959;51.244;5.724;2022-09-09T15:13:46;23.20;62.20
68922;DHT22;55959;51.244;5.724;2022-09-09T15:16:16;23.20;62.30
68922;DHT22;55959;51.244;5.724;2022-09-09T15:18:44;23.30;62.00
68922;DHT22;55959;51.244;5.724;2022-09-09T15:21:11;23.30;61.70
68922;DHT22;55959;51.244;5.724;2022-09-09T15:23:39;23.30;61.30
68922;DHT22;55959;51.244;5.724;2022-09-09T15:26:05;23.30;61.20
68922;DHT22;55959;51.244;5.724;2022-09-09T15:28:36;23.30;61.00
68922;DHT22;55959;51.244;5.724;2022-09-09T15:31:09;23.40;61.10
68922;DHT22;55959;51.244;5.724;2022-09-09T15:33:38;23.40;60.90
68922;DHT22;55959;51.244;5.724;2022-09-09T15:36:16;23.40;60.70
68922;DHT22;55959;51.244;5.724;2022-09-09T15:38:47;23.40;60.30
68922;DHT22;55959;51.244;5.724;2022-09-09T15:41:14;23.40;60.30
68922;DHT22;55959;51.244;5.724;2022-09-09T15:43:51;23.40;60.50
68922;DHT22;55959;51.244;5.724;2022-09-09T15:46:40;23.40;60.30
68922;DHT22;55959;51.244;5.724;2022-09-09T15:49:11;23.50;59.80
68922;DHT22;55959;51.244;5.724;2022-09-09T15:51:40;23.40;59.50
68922;DHT22;55959;51.244;5.724;2022-09-09T15:54:10;23.50;59.40
68922;DHT22;55959;51.244;5.724;2022-09-09T15:56:37;23.40;59.20
68922;DHT22;55959;51.244;5.724;2022-09-09T15:59:03;23.40;59.00
68922;DHT22;55959;51.244;5.724;2022-09-09T16:01:30;23.40;58.90
68922;DHT22;55959;51.244;5.724;2022-09-09T16:03:58;23.40;58.90
68922;DHT22;55959;51.244;5.724;2022-09-09T16:06:25;23.40;58.80
68922;DHT22;55959;51.244;5.724;2022-09-09T16:08:54;23.40;58.60
68922;DHT22;55959;51.244;5.724;2022-09-09T16:11:32;23.40;58.60
68922;DHT22;55959;51.244;5.724;2022-09-09T16:14:00;23.40;58.80
68922;DHT22;55959;51.244;5.724;2022-09-09T16:16:28;23.40;59.00
68922;DHT22;55959;51.244;5.724;2022-09-09T16:19:00;23.40;58.90
68922;DHT22;55959;51.244;5.724;2022-09-09T16:21:31;23.40;58.80
68922;DHT22;55959;51.244;5.724;2022-09-09T16:23:59;23.40;58.80
68922;DHT22;55959;51.244;5.724;2022-09-09T16:26:27;23.40;58.80
68922;DHT22;55959;51.244;5.724;2022-09-09T16:28:54;23.40;58.70
68922;DHT22;55959;51.244;5.724;2022-09-09T16:31:23;23.40;58.60
68922;DHT22;55959;51.244;5.724;2022-09-09T16:33:49;23.40;58.60
68922;DHT22;55959;51.244;5.724;2022-09-09T16:36:20;23.40;58.40
68922;DHT22;55959;51.244;5.724;2022-09-09T16:38:47;23.40;58.30
68922;DHT22;55959;51.244;5.724;2022-09-09T16:41:14;23.40;58.30
68922;DHT22;55959;51.244;5.724;2022-09-09T16:43:40;23.40;58.20
68922;DHT22;55959;51.244;5.724;2022-09-09T16:46:17;23.40;58.20
68922;DHT22;55959;51.244;5.724;2022-09-09T16:48:46;23.40;58.20
68922;DHT22;55959;51.244;5.724;2022-09-09T16:51:24;23.30;58.10
68922;DHT22;55959;51.244;5.724;2022-09-09T16:53:53;23.30;58.10
68922;DHT22;55959;51.244;5.724;2022-09-09T16:56:24;23.30;58.00
68922;DHT22;55959;51.244;5.724;2022-09-09T16:59:00;23.30;58.10
68922;DHT22;55959;51.244;5.724;2022-09-09T17:01:30;23.30;58.00
68922;DHT22;55959;51.244;5.724;2022-09-09T17:04:00;23.30;58.00
68922;DHT22;55959;51.244;5.724;2022-09-09T17:06:28;23.30;58.00
68922;DHT22;55959;51.244;5.724;2022-09-09T17:09:03;23.30;58.00
68922;DHT22;55959;51.244;5.724;2022-09-09T17:11:34;23.30;58.00
68922;DHT22;55959;51.244;5.724;2022-09-09T17:14:01;23.30;58.70
68922;DHT22;55959;51.244;5.724;2022-09-09T17:16:29;23.20;58.60
68922;DHT22;55959;51.244;5.724;2022-09-09T17:18:56;23.20;58.20
68922;DHT22;55959;51.244;5.724;2022-09-09T17:21:25;23.10;58.00
68922;DHT22;55959;51.244;5.724;2022-09-09T17:23:52;23.10;58.00
68922;DHT22;55959;51.244;5.724;2022-09-09T17:26:21;23.00;58.30
68922;DHT22;55959;51.244;5.724;2022-09-09T17:28:48;22.90;58.60
68922;DHT22;55959;51.244;5.724;2022-09-09T17:31:16;22.90;58.90
68922;DHT22;55959;51.244;5.724;2022-09-09T17:33:49;22.80;59.00
68922;DHT22;55959;51.244;5.724;2022-09-09T17:36:22;22.70;59.10
68922;DHT22;55959;51.244;5.724;2022-09-09T17:38:50;22.70;59.30
68922;DHT22;55959;51.244;5.724;2022-09-09T17:41:25;22.60;59.40
68922;DHT22;55959;51.244;5.724;2022-09-09T17:43:53;22.50;59.60
68922;DHT22;55959;51.244;5.724;2022-09-09T17:46:22;22.40;59.70
68922;DHT22;55959;51.244;5.724;2022-09-09T17:48:51;22.40;59.90
68922;DHT22;55959;51.244;5.724;2022-09-09T17:51:22;22.30;60.10
68922;DHT22;55959;51.244;5.724;2022-09-09T17:53:51;22.30;60.30
68922;DHT22;55959;51.244;5.724;2022-09-09T17:56:22;22.20;60.50
68922;DHT22;55959;51.244;5.724;2022-09-09T17:58:52;22.20;60.70
68922;DHT22;55959;51.244;5.724;2022-09-09T18:01:26;22.10;60.90
68922;DHT22;55959;51.244;5.724;2022-09-09T18:03:54;22.00;61.10
68922;DHT22;55959;51.244;5.724;2022-09-09T18:06:25;22.00;61.10
68922;DHT22;55959;51.244;5.724;2022-09-09T18:08:58;21.90;61.20
68922;DHT22;55959;51.244;5.724;2022-09-09T18:11:28;21.90;61.40
68922;DHT22;55959;51.244;5.724;2022-09-09T18:13:58;21.80;61.60
68922;DHT22;55959;51.244;5.724;2022-09-09T18:16:26;21.80;61.70
68922;DHT22;55959;51.244;5.724;2022-09-09T18:18:54;21.80;62.00
68922;DHT22;55959;51.244;5.724;2022-09-09T18:21:23;21.70;62.00
68922;DHT22;55959;51.244;5.724;2022-09-09T18:23:50;21.70;62.20